Time;durP1;ratioP1;P1;durP2;ratioP2;P2;SDS_P1;SDS_P2;PMS_P1;PMS_P2;Temp;Humidity;BMP_temperature;BMP_pressure;BME280_temperature;BME280_humidity;BME280_pressure;Samples;Min_cycle;Max_cycle;Signal;HPM_P1;HPM_P2
2023/03/13 00:00:55;;;;;;;19.50;4.30;;;6.60;99.90;;;;;;5370799;22;20241;-80
2023/03/13 00:03:22;;;;;;;23.73;4.17;;;6.60;99.90;;;;;;5013694;28;20281;-79
2023/03/13 00:05:48;;;;;;;24.10;4.23;;;6.70;99.90;;;;;;5013932;28;20179;-79
2023/03/13 00:08:14;;;;;;;20.13;4.50;;;6.70;99.90;;;;;;5012659;28;20171;-79
2023/03/13 00:10:40;;;;;;;17.37;3.80;;;6.70;99.90;;;;;;5013536;28;20206;-80
2023/03/13 00:13:07;;;;;;;17.37;3.63;;;6.70;99.90;;;;;;5013545;28;20182;-80
2023/03/13 00:15:33;;;;;;;17.67;3.73;;;6.80;99.90;;;;;;5012873;28;20203;-79
2023/03/13 00:17:58;;;;;;;18.80;4.40;;;6.80;99.90;;;;;;5013675;28;20229;-80
2023/03/13 00:20:24;;;;;;;18.57;4.13;;;6.80;99.90;;;;;;5013628;28;20179;-79
2023/03/13 00:22:50;;;;;;;20.47;5.23;;;6.80;99.90;;;;;;5012341;28;20184;-79
2023/03/13 00:25:16;;;;;;;17.27;3.90;;;6.70;99.90;;;;;;5012308;28;20179;-80
2023/03/13 00:27:42;;;;;;;20.27;4.50;;;6.80;99.90;;;;;;5013653;28;20179;-78
2023/03/13 00:30:08;;;;;;;15.77;3.83;;;6.80;99.90;;;;;;5012907;28;20203;-80
2023/03/13 00:32:40;;;;;;;20.87;4.13;;;6.80;99.90;;;;;;5028241;28;20198;-79
2023/03/13 00:35:06;;;;;;;19.03;3.70;;;6.80;99.90;;;;;;5013625;28;20616;-81
2023/03/13 00:37:31;;;;;;;17.27;3.53;;;6.80;99.90;;;;;;5013571;28;20175;-79
2023/03/13 00:39:57;;;;;;;17.50;4.13;;;6.90;99.90;;;;;;5013298;28;20256;-80
2023/03/13 00:42:22;;;;;;;19.73;4.00;;;6.90;99.90;;;;;;5013356;28;20175;-80
2023/03/13 00:44:48;;;;;;;21.00;4.37;;;7.00;99.90;;;;;;5029022;28;20197;-81
2023/03/13 00:47:14;;;;;;;15.60;3.50;;;7.00;99.90;;;;;;5033030;28;20217;-80
2023/03/13 00:49:39;;;;;;;19.93;4.17;;;6.90;99.90;;;;;;5032793;28;20209;-80
2023/03/13 00:52:05;;;;;;;15.23;3.83;;;6.90;99.90;;;;;;5033076;28;20269;-79
2023/03/13 00:54:31;;;;;;;16.77;4.37;;;7.00;99.90;;;;;;5033492;28;20179;-81
2023/03/13 00:56:57;;;;;;;20.33;4.10;;;6.90;99.90;;;;;;5032866;28;20179;-80
2023/03/13 00:59:22;;;;;;;17.27;3.60;;;7.00;99.90;;;;;;5032738;28;20186;-80
2023/03/13 01:01:48;;;;;;;21.80;4.27;;;7.00;99.90;;;;;;5032398;28;20226;-79
2023/03/13 01:04:14;;;;;;;15.53;3.63;;;6.90;99.90;;;;;;5032856;28;20621;-80
2023/03/13 01:06:41;;;;;;;19.63;4.03;;;7.00;99.90;;;;;;5032350;28;20520;-80
2023/03/13 01:09:10;;;;;;;16.00;3.73;;;7.00;99.90;;;;;;5032638;28;20182;-79
2023/03/13 01:11:38;;;;;;;13.73;3.33;;;7.00;99.90;;;;;;5014647;28;20523;-80
2023/03/13 01:14:08;;;;;;;12.27;3.90;;;7.10;99.90;;;;;;5031759;28;20174;-79
2023/03/13 01:16:35;;;;;;;17.20;3.60;;;7.10;99.90;;;;;;5032891;28;20183;-80
2023/03/13 01:19:19;;;;;;;20.80;4.07;;;7.10;99.90;;;;;;5032569;28;20175;-79
2023/03/13 01:21:45;;;;;;;17.43;3.67;;;7.10;99.90;;;;;;5014455;28;20595;-79
2023/03/13 01:24:11;;;;;;;18.63;4.17;;;7.10;99.90;;;;;;5014826;28;20313;-79
2023/03/13 01:26:37;;;;;;;21.47;3.67;;;7.10;99.90;;;;;;5035726;28;20170;-79
2023/03/13 01:29:03;;;;;;;17.87;3.37;;;7.20;99.90;;;;;;5035914;28;20178;-80
2023/03/13 01:31:33;;;;;;;20.60;4.43;;;7.10;99.90;;;;;;5035179;28;20174;-79
2023/03/13 01:34:01;;;;;;;18.33;4.03;;;7.10;99.90;;;;;;5018280;28;20509;-80
2023/03/13 01:36:28;;;;;;;19.93;3.40;;;7.10;99.90;;;;;;5036334;28;20187;-79
2023/03/13 01:38:56;;;;;;;18.07;4.10;;;7.10;99.90;;;;;;5018377;28;20499;-80
2023/03/13 01:41:23;;;;;;;11.07;3.10;;;7.20;99.90;;;;;;5036147;28;20175;-79
2023/03/13 01:43:49;;;;;;;17.40;3.37;;;7.20;99.90;;;;;;5018374;28;20269;-79
2023/03/13 01:46:20;;;;;;;12.30;3.40;;;7.20;99.90;;;;;;5035966;28;20174;-80
2023/03/13 01:48:48;;;;;;;19.30;3.37;;;7.30;99.90;;;;;;5034955;28;20321;-79
2023/03/13 01:51:30;;;;;;;21.50;3.37;;;7.30;99.90;;;;;;5035715;28;20585;-79
2023/03/13 01:54:10;;;;;;;16.63;3.33;;;7.30;99.90;;;;;;5036133;28;20523;-80
2023/03/13 01:56:47;;;;;;;13.60;3.10;;;7.30;99.90;;;;;;5018322;28;20202;-80
2023/03/13 01:59:16;;;;;;;20.60;3.50;;;7.30;99.90;;;;;;5035589;28;20770;-79
2023/03/13 02:01:45;;;;;;;16.07;3.43;;;7.30;99.90;;;;;;5035496;28;20222;-79
2023/03/13 02:04:13;;;;;;;19.57;3.40;;;7.30;99.90;;;;;;5035987;28;20250;-80
2023/03/13 02:06:42;;;;;;;16.50;3.37;;;7.40;99.90;;;;;;5035880;28;20163;-79
2023/03/13 02:09:13;;;;;;;14.10;3.07;;;7.30;99.90;;;;;;5034239;28;20623;-80
2023/03/13 02:11:54;;;;;;;14.10;3.60;;;7.40;99.90;;;;;;5034967;28;20182;-80
2023/03/13 02:14:24;;;;;;;17.13;3.17;;;7.40;99.90;;;;;;5034590;28;20719;-79
2023/03/13 02:16:51;;;;;;;16.53;3.07;;;7.40;99.90;;;;;;5035700;28;20601;-79
2023/03/13 02:19:26;;;;;;;16.10;3.13;;;7.40;99.90;;;;;;5018026;28;20182;-79
2023/03/13 02:22:05;;;;;;;12.73;3.13;;;7.40;99.90;;;;;;5035386;28;20171;-80
2023/03/13 02:24:38;;;;;;;17.93;3.50;;;7.40;99.90;;;;;;5035463;28;20178;-79
2023/03/13 02:27:04;;;;;;;21.17;3.30;;;7.40;99.90;;;;;;5035259;28;20545;-81
2023/03/13 02:29:30;;;;;;;21.13;4.13;;;7.50;99.90;;;;;;5034890;28;20206;-79
2023/03/13 02:31:56;;;;;;;14.83;3.00;;;7.60;99.90;;;;;;5017488;28;20187;-79
2023/03/13 02:34:27;;;;;;;20.33;3.60;;;7.60;99.90;;;;;;5035189;28;20257;-79
2023/03/13 02:36:53;;;;;;;20.50;4.17;;;7.60;99.90;;;;;;5034503;28;20179;-80
2023/03/13 02:39:22;;;;;;;14.93;3.37;;;7.70;99.90;;;;;;5035061;28;20174;-80
2023/03/13 02:41:50;;;;;;;16.53;3.27;;;7.70;99.90;;;;;;5035079;28;20205;-80
2023/03/13 02:44:16;;;;;;;12.67;3.07;;;7.60;99.90;;;;;;5017114;28;20533;-80
2023/03/13 02:46:51;;;;;;;18.87;3.53;;;7.60;99.90;;;;;;5017398;28;20170;-79
2023/03/13 02:49:26;;;;;;;14.07;3.03;;;7.60;99.90;;;;;;5034841;28;20167;-80
2023/03/13 02:51:53;;;;;;;20.67;3.47;;;7.50;99.90;;;;;;5035118;28;20170;-79
2023/03/13 02:54:33;;;;;;;16.33;3.47;;;7.60;99.90;;;;;;5034939;28;20178;-80
2023/03/13 02:57:02;;;;;;;16.60;3.43;;;7.50;99.90;;;;;;5035014;28;20212;-80
2023/03/13 02:59:28;;;;;;;17.60;3.43;;;7.40;99.90;;;;;;5016521;28;20265;-80
2023/03/13 03:01:54;;;;;;;23.60;4.27;;;7.40;99.90;;;;;;5034373;28;20317;-79
2023/03/13 03:04:21;;;;;;;12.47;2.93;;;7.40;99.90;;;;;;5016929;28;20182;-80
2023/03/13 03:06:47;;;;;;;16.73;3.43;;;7.40;99.90;;;;;;5035058;28;20167;-81
2023/03/13 03:09:13;;;;;;;16.73;2.90;;;7.50;99.90;;;;;;5016799;28;20528;-81
2023/03/13 03:11:38;;;;;;;16.30;3.47;;;7.50;99.90;;;;;;5017055;28;20183;-82
2023/03/13 03:14:04;;;;;;;18.30;3.67;;;7.50;99.90;;;;;;5034405;28;20171;-82
2023/03/13 03:16:30;;;;;;;19.63;3.63;;;7.40;99.90;;;;;;5016591;28;20295;-82
2023/03/13 03:18:56;;;;;;;19.70;3.70;;;7.40;99.90;;;;;;5016691;28;20205;-82
2023/03/13 03:21:22;;;;;;;21.57;3.83;;;7.40;99.90;;;;;;5016573;28;20174;-82
2023/03/13 03:23:49;;;;;;;23.23;4.97;;;7.40;99.90;;;;;;5016623;28;20621;-82
2023/03/13 03:26:14;;;;;;;20.97;3.80;;;7.40;99.90;;;;;;5016587;28;20171;-82
2023/03/13 03:28:40;;;;;;;18.30;3.87;;;7.40;99.90;;;;;;5016378;28;20185;-82
2023/03/13 03:31:09;;;;;;;19.77;4.37;;;7.40;99.90;;;;;;5033745;28;20257;-82
2023/03/13 03:33:35;;;;;;;19.40;4.20;;;7.30;99.90;;;;;;5016153;28;20647;-80
2023/03/13 03:36:03;;;;;;;22.23;5.13;;;7.30;99.90;;;;;;5016431;28;20179;-82
2023/03/13 03:38:29;;;;;;;21.03;4.67;;;7.40;99.90;;;;;;5016316;28;20181;-82
2023/03/13 03:40:54;;;;;;;24.67;4.13;;;7.30;99.90;;;;;;5033604;28;20200;-82
2023/03/13 03:43:20;;;;;;;17.33;3.67;;;7.30;99.90;;;;;;5016222;28;20209;-81
2023/03/13 03:45:46;;;;;;;18.87;3.73;;;7.30;99.90;;;;;;5015887;28;20252;-82
2023/03/13 03:48:11;;;;;;;23.93;3.87;;;7.20;99.90;;;;;;5033841;28;20174;-82
2023/03/13 03:50:37;;;;;;;18.40;3.90;;;7.30;99.90;;;;;;5016045;28;20222;-82
2023/03/13 03:53:03;;;;;;;19.63;3.80;;;7.30;99.90;;;;;;5015941;28;20210;-81
2023/03/13 03:55:29;;;;;;;19.50;3.50;;;7.30;99.90;;;;;;5016091;28;20182;-81
2023/03/13 03:57:54;;;;;;;18.50;3.73;;;7.30;99.90;;;;;;5033719;28;20159;-82
2023/03/13 04:00:20;;;;;;;18.10;3.53;;;7.40;99.90;;;;;;5015562;28;20179;-81
2023/03/13 04:02:46;;;;;;;16.63;3.63;;;7.40;99.90;;;;;;5031455;28;20322;-82
2023/03/13 04:05:12;;;;;;;16.93;3.50;;;7.40;99.90;;;;;;5033661;28;20265;-82
2023/03/13 04:07:38;;;;;;;22.27;3.60;;;7.40;99.90;;;;;;5031115;28;20186;-82
2023/03/13 04:10:04;;;;;;;13.43;3.10;;;7.40;99.90;;;;;;5032098;28;20209;-82
2023/03/13 04:12:30;;;;;;;19.23;3.50;;;7.40;99.90;;;;;;5032075;28;20179;-82
2023/03/13 04:14:56;;;;;;;16.17;2.80;;;7.40;99.90;;;;;;5032100;28;20231;-82
2023/03/13 04:17:21;;;;;;;13.40;2.80;;;7.40;99.90;;;;;;5032216;28;20890;-82
2023/03/13 04:19:47;;;;;;;13.50;3.40;;;7.40;99.90;;;;;;5032168;28;20622;-82
2023/03/13 04:22:13;;;;;;;16.60;3.33;;;7.40;99.90;;;;;;5033124;28;20178;-82
2023/03/13 04:24:38;;;;;;;23.63;3.10;;;7.40;99.90;;;;;;5032015;28;20178;-82
2023/03/13 04:27:05;;;;;;;25.23;3.70;;;7.30;99.90;;;;;;5032013;28;20273;-83
2023/03/13 04:29:31;;;;;;;20.17;3.33;;;7.30;99.90;;;;;;5031842;28;20348;-82
2023/03/13 04:31:57;;;;;;;21.57;3.60;;;7.30;99.90;;;;;;5031870;28;20755;-81
2023/03/13 04:34:23;;;;;;;16.60;3.10;;;7.30;99.90;;;;;;5031960;28;20273;-82
2023/03/13 04:36:49;;;;;;;12.87;2.80;;;7.40;99.90;;;;;;5032049;28;20198;-82
2023/03/13 04:39:14;;;;;;;28.37;3.93;;;7.40;99.90;;;;;;5031641;28;20652;-81
2023/03/13 04:41:40;;;;;;;20.93;3.67;;;7.30;99.90;;;;;;5031819;28;20221;-81
2023/03/13 04:44:06;;;;;;;26.67;4.10;;;7.40;99.90;;;;;;5031768;28;20182;-81
2023/03/13 04:46:31;;;;;;;18.90;3.40;;;7.30;99.90;;;;;;5033070;28;20540;-81
2023/03/13 04:48:57;;;;;;;20.17;3.47;;;7.40;99.90;;;;;;5033389;28;20206;-81
2023/03/13 04:51:23;;;;;;;15.90;3.23;;;7.40;99.90;;;;;;5032827;28;20268;-81
2023/03/13 04:53:49;;;;;;;22.67;3.50;;;7.40;99.90;;;;;;5032809;28;20170;-82
2023/03/13 04:56:22;;;;;;;15.63;2.53;;;7.40;99.90;;;;;;5031825;28;20209;-81
2023/03/13 04:58:47;;;;;;;17.07;2.77;;;7.50;99.90;;;;;;5031725;28;20183;-81
2023/03/13 05:01:13;;;;;;;11.30;2.30;;;7.50;99.90;;;;;;5033397;28;20226;-81
2023/03/13 05:03:39;;;;;;;17.33;3.23;;;7.50;99.90;;;;;;5036677;28;20299;-81
2023/03/13 05:06:05;;;;;;;23.90;3.43;;;7.50;99.90;;;;;;5035599;28;20606;-81
2023/03/13 05:08:30;;;;;;;20.33;3.37;;;7.40;99.90;;;;;;5035312;28;20183;-82
2023/03/13 05:10:56;;;;;;;16.33;3.07;;;7.40;99.90;;;;;;5036794;28;20206;-82
2023/03/13 05:13:22;;;;;;;17.90;3.57;;;7.50;99.90;;;;;;5036248;28;20300;-81
2023/03/13 05:15:47;;;;;;;17.83;2.83;;;7.50;99.90;;;;;;5035164;28;20269;-81
2023/03/13 05:18:13;;;;;;;19.40;2.77;;;7.50;99.90;;;;;;5036794;28;20159;-82
2023/03/13 05:20:39;;;;;;;14.10;2.70;;;7.50;99.90;;;;;;5035435;28;20655;-81
2023/03/13 05:23:05;;;;;;;18.33;3.27;;;7.50;99.90;;;;;;5036609;28;20174;-81
2023/03/13 05:25:30;;;;;;;21.30;3.53;;;7.50;99.90;;;;;;5036496;28;20174;-82
2023/03/13 05:27:56;;;;;;;18.50;3.47;;;7.50;99.90;;;;;;5036925;28;20202;-80
2023/03/13 05:30:24;;;;;;;16.57;3.47;;;7.60;99.90;;;;;;5035983;28;20553;-81
2023/03/13 05:32:49;;;;;;;19.03;3.60;;;7.60;99.90;;;;;;5035166;28;20523;-81
2023/03/13 05:35:15;;;;;;;23.20;3.07;;;7.60;99.90;;;;;;5036506;28;20262;-81
2023/03/13 05:37:41;;;;;;;20.80;3.00;;;7.60;99.90;;;;;;5036514;28;20254;-81
2023/03/13 05:40:09;;;;;;;23.27;3.43;;;7.60;99.90;;;;;;5034845;28;20178;-80
2023/03/13 05:42:34;;;;;;;21.60;3.73;;;7.70;99.90;;;;;;5034798;28;20171;-82
2023/03/13 05:45:00;;;;;;;15.30;3.10;;;7.80;99.90;;;;;;5034662;28;20284;-81
2023/03/13 05:47:26;;;;;;;21.07;3.30;;;7.70;99.90;;;;;;5036364;28;20167;-81
2023/03/13 05:49:51;;;;;;;17.53;3.20;;;7.70;99.90;;;;;;5035921;28;20199;-80
2023/03/13 05:52:17;;;;;;;19.03;2.93;;;7.80;99.90;;;;;;5014915;28;20194;-81
2023/03/13 05:54:43;;;;;;;16.47;3.70;;;7.90;99.90;;;;;;5014798;28;20183;-80
2023/03/13 05:57:08;;;;;;;22.43;3.53;;;7.80;99.90;;;;;;5016185;28;20171;-82
2023/03/13 05:59:34;;;;;;;16.27;3.10;;;7.80;99.90;;;;;;5014717;28;20183;-82
2023/03/13 06:01:59;;;;;;;20.03;3.60;;;7.80;99.90;;;;;;4992854;28;20228;-83
2023/03/13 06:04:25;;;;;;;17.43;3.40;;;7.90;99.90;;;;;;4995026;28;20179;-82
2023/03/13 06:06:51;;;;;;;16.40;3.23;;;7.90;99.90;;;;;;4996384;28;20188;-82
2023/03/13 06:09:17;;;;;;;14.63;3.20;;;7.90;99.90;;;;;;4978684;28;20619;-80
2023/03/13 06:11:42;;;;;;;20.23;3.70;;;7.90;99.90;;;;;;4977926;28;20250;-81
2023/03/13 06:14:08;;;;;;;16.80;3.77;;;7.90;99.90;;;;;;4996345;28;20511;-83
2023/03/13 06:16:34;;;;;;;25.70;4.03;;;7.90;99.90;;;;;;4978937;28;20668;-83
2023/03/13 06:19:01;;;;;;;17.63;4.47;;;7.90;99.90;;;;;;4978849;28;20180;-80
2023/03/13 06:21:27;;;;;;;19.20;3.30;;;7.90;99.90;;;;;;5013635;28;20545;-82
2023/03/13 06:23:54;;;;;;;15.73;3.87;;;7.90;99.90;;;;;;4998140;28;20179;-80
2023/03/13 06:26:20;;;;;;;20.17;3.50;;;8.00;99.90;;;;;;5015730;28;20346;-82
2023/03/13 06:28:47;;;;;;;11.93;3.40;;;8.00;99.90;;;;;;4997846;28;20261;-82
2023/03/13 06:31:13;;;;;;;16.70;3.90;;;8.10;99.90;;;;;;4997151;28;20225;-83
2023/03/13 06:33:39;;;;;;;24.80;3.80;;;8.20;99.90;;;;;;4996968;28;20171;-81
2023/03/13 06:36:05;;;;;;;22.97;4.67;;;8.20;99.90;;;;;;4997309;28;20278;-82
2023/03/13 06:38:31;;;;;;;15.33;3.37;;;8.20;99.90;;;;;;5001073;28;20198;-81
2023/03/13 06:40:57;;;;;;;13.10;3.30;;;8.20;99.90;;;;;;5000475;28;20187;-80
2023/03/13 06:43:22;;;;;;;14.13;3.30;;;8.30;99.90;;;;;;5015313;28;20186;-82
2023/03/13 06:45:48;;;;;;;14.87;3.33;;;8.30;99.90;;;;;;5015432;28;20610;-81
2023/03/13 06:48:14;;;;;;;10.53;2.70;;;8.30;99.90;;;;;;4997232;28;20221;-82
2023/03/13 06:50:41;;;;;;;13.03;3.20;;;8.40;99.90;;;;;;4997096;28;20215;-81
2023/03/13 06:53:07;;;;;;;13.73;2.83;;;8.40;99.90;;;;;;4992030;28;20180;-81
2023/03/13 06:55:32;;;;;;;16.03;3.03;;;8.50;99.90;;;;;;5014242;28;20210;-82
2023/03/13 06:57:58;;;;;;;9.53;3.00;;;8.60;99.90;;;;;;5015445;28;20606;-81
2023/03/13 07:00:24;;;;;;;13.10;2.60;;;8.60;99.90;;;;;;5015116;28;20179;-81
2023/03/13 07:02:50;;;;;;;13.83;2.63;;;8.70;99.90;;;;;;5034614;28;20284;-82
2023/03/13 07:05:16;;;;;;;13.80;2.97;;;8.70;99.90;;;;;;5017110;28;20178;-81
2023/03/13 07:07:42;;;;;;;11.03;2.93;;;8.70;99.90;;;;;;5034218;28;20675;-83
2023/03/13 07:10:09;;;;;;;10.40;2.30;;;8.70;99.90;;;;;;5016874;28;20217;-81
2023/03/13 07:12:36;;;;;;;10.90;2.63;;;8.70;99.90;;;;;;5016979;28;20621;-81
2023/03/13 07:15:02;;;;;;;8.27;2.20;;;8.70;99.90;;;;;;5016872;28;20671;-80
2023/03/13 07:17:28;;;;;;;14.37;2.47;;;8.70;99.90;;;;;;5017116;28;20512;-81
2023/03/13 07:19:54;;;;;;;10.67;2.20;;;8.70;99.90;;;;;;5016115;28;20182;-81
2023/03/13 07:22:19;;;;;;;14.87;2.63;;;8.80;99.90;;;;;;5016127;28;20186;-80
2023/03/13 07:24:45;;;;;;;11.20;2.10;;;8.90;99.90;;;;;;5007834;28;20176;-81
2023/03/13 07:27:11;;;;;;;11.33;2.30;;;8.90;99.90;;;;;;4996326;28;20183;-79
2023/03/13 07:29:36;;;;;;;10.67;2.60;;;8.90;99.90;;;;;;5013103;28;20211;-84
2023/03/13 07:32:02;;;;;;;12.63;2.37;;;8.90;99.90;;;;;;5020489;28;20264;-80
2023/03/13 07:34:28;;;;;;;12.17;2.40;;;8.90;99.90;;;;;;5032991;28;20513;-81
2023/03/13 07:36:53;;;;;;;10.20;2.53;;;8.90;99.90;;;;;;5014897;28;20190;-81
2023/03/13 07:39:19;;;;;;;10.20;1.97;;;8.90;99.90;;;;;;5016314;28;20173;-83
2023/03/13 07:41:45;;;;;;;9.30;2.07;;;8.90;99.90;;;;;;5016179;28;20620;-81
2023/03/13 07:44:10;;;;;;;17.80;2.27;;;9.00;99.90;;;;;;5014958;28;20217;-83
2023/03/13 07:46:36;;;;;;;8.87;2.07;;;9.00;99.90;;;;;;5015082;28;20174;-82
2023/03/13 07:49:02;;;;;;;9.07;2.20;;;9.00;99.90;;;;;;5034061;28;20526;-81
2023/03/13 07:51:27;;;;;;;7.40;1.80;;;9.00;99.90;;;;;;5033305;28;20242;-82
2023/03/13 07:53:53;;;;;;;8.47;2.87;;;9.10;99.90;;;;;;5033325;28;20171;-82
2023/03/13 07:56:21;;;;;;;6.30;1.90;;;9.10;99.90;;;;;;5033123;28;20174;-80
2023/03/13 07:58:48;;;;;;;4.67;1.80;;;9.10;99.90;;;;;;5016249;28;20232;-81
2023/03/13 08:01:20;;;;;;;8.60;2.40;;;9.20;99.90;;;;;;5018965;28;20626;-80
2023/03/13 08:03:49;;;;;;;7.87;1.77;;;9.20;99.90;;;;;;5033023;28;20175;-81
2023/03/13 08:06:22;;;;;;;9.20;2.07;;;9.30;99.90;;;;;;5020273;28;20189;-82
2023/03/13 08:08:48;;;;;;;7.73;2.20;;;9.30;99.90;;;;;;5031715;28;20221;-81
2023/03/13 08:11:17;;;;;;;10.40;2.03;;;9.40;99.90;;;;;;5048604;28;20249;-81
2023/03/13 08:13:43;;;;;;;9.75;1.75;;;9.40;99.90;;;;;;5021774;28;20179;-81
2023/03/13 08:16:15;;;;;;;9.52;1.73;;;9.40;99.90;;;;;;5012314;28;20644;-81
2023/03/13 08:18:43;;;;;;;5.67;1.73;;;9.40;99.90;;;;;;5013948;28;20506;-82
2023/03/13 08:21:16;;;;;;;8.00;1.70;;;9.50;99.90;;;;;;5012120;28;20175;-81
2023/03/13 08:23:42;;;;;;;8.10;1.80;;;9.50;99.90;;;;;;5012691;28;20175;-82
2023/03/13 08:26:10;;;;;;;7.20;1.88;;;9.50;99.90;;;;;;5013637;28;20183;-82
2023/03/13 08:28:37;;;;;;;7.78;1.88;;;9.60;99.90;;;;;;5012718;28;20175;-83
2023/03/13 08:31:15;;;;;;;4.00;1.90;;;9.60;99.90;;;;;;5028642;28;20237;-81
2023/03/13 08:33:45;;;;;;;3.87;1.57;;;9.60;99.90;;;;;;5046919;28;20210;-84
2023/03/13 08:36:26;;;;;;;6.17;1.80;;;9.70;99.90;;;;;;5030558;28;20186;-84
2023/03/13 08:38:54;;;;;;;5.63;1.80;;;9.70;99.90;;;;;;5031742;28;20652;-83
2023/03/13 08:41:22;;;;;;;4.65;1.55;;;9.80;99.90;;;;;;5033199;28;20221;-82
2023/03/13 08:43:50;;;;;;;7.85;1.83;;;9.80;99.90;;;;;;5032309;28;20621;-83
2023/03/13 08:46:16;;;;;;;4.78;1.65;;;9.90;99.90;;;;;;5033031;28;20175;-82
2023/03/13 08:48:41;;;;;;;4.35;1.25;;;9.90;99.90;;;;;;5032366;28;20181;-85
2023/03/13 08:51:13;;;;;;;4.97;1.35;;;9.90;99.90;;;;;;5033023;28;20210;-83
2023/03/13 08:53:42;;;;;;;4.75;1.58;;;9.90;99.90;;;;;;5033396;28;20504;-85
2023/03/13 08:56:10;;;;;;;3.67;1.55;;;10.00;99.90;;;;;;5032144;28;20211;-82
2023/03/13 08:58:36;;;;;;;3.80;1.38;;;9.90;99.90;;;;;;5033517;28;20170;-84
2023/03/13 09:01:08;;;;;;;3.83;1.25;;;10.00;99.90;;;;;;5033054;28;20277;-82
2023/03/13 09:03:33;;;;;;;4.10;1.50;;;10.10;99.90;;;;;;5015217;28;20277;-83
2023/03/13 09:06:00;;;;;;;4.82;1.60;;;10.20;99.90;;;;;;5015515;28;20260;-82
2023/03/13 09:08:28;;;;;;;6.65;1.42;;;10.30;99.90;;;;;;5015554;28;20190;-82
2023/03/13 09:10:58;;;;;;;4.10;1.40;;;10.40;99.90;;;;;;5015266;28;20214;-84
2023/03/13 09:13:24;;;;;;;3.80;1.27;;;10.40;99.90;;;;;;5015611;28;20182;-83
2023/03/13 09:15:58;;;;;;;4.03;1.48;;;10.40;99.90;;;;;;5015630;28;20261;-83
2023/03/13 09:18:24;;;;;;;3.42;1.20;;;10.40;99.90;;;;;;5033409;28;20163;-83
2023/03/13 09:20:50;;;;;;;4.32;2.10;;;10.40;99.90;;;;;;5032668;28;20186;-83
2023/03/13 09:23:16;;;;;;;5.53;1.48;;;10.30;99.90;;;;;;5033084;28;20798;-83
2023/03/13 09:25:42;;;;;;;4.15;1.55;;;10.40;99.90;;;;;;5015464;28;20187;-83
2023/03/13 09:28:08;;;;;;;2.38;1.13;;;10.40;99.90;;;;;;5033217;28;20178;-83
2023/03/13 09:30:34;;;;;;;5.57;1.35;;;10.50;99.90;;;;;;5015184;28;20268;-83
2023/03/13 09:32:59;;;;;;;3.65;1.30;;;10.50;99.90;;;;;;5032641;28;20614;-82
2023/03/13 09:35:25;;;;;;;3.58;1.30;;;10.60;99.90;;;;;;5032808;28;20518;-81
2023/03/13 09:37:51;;;;;;;3.17;1.15;;;10.60;99.90;;;;;;5015561;28;20191;-82
2023/03/13 09:40:20;;;;;;;4.15;1.20;;;10.70;99.90;;;;;;5032765;28;20171;-84
2023/03/13 09:42:57;;;;;;;3.80;1.10;;;10.80;99.90;;;;;;5015305;28;20273;-84
2023/03/13 09:45:43;;;;;;;2.92;1.50;;;10.90;99.90;;;;;;5015323;28;20186;-82
2023/03/13 09:48:21;;;;;;;5.68;1.48;;;11.00;99.90;;;;;;5018880;28;20178;-83
2023/03/13 09:51:00;;;;;;;2.80;1.10;;;11.20;99.90;;;;;;5018306;28;20289;-81
2023/03/13 09:53:43;;;;;;;6.00;1.40;;;11.30;99.90;;;;;;5018233;28;20205;-84
2023/03/13 09:56:46;;;;;;;4.97;1.42;;;11.30;99.90;;;;;;5036239;28;20162;-80
2023/03/13 09:59:33;;;;;;;4.88;1.58;;;11.40;99.90;;;;;;4998071;28;20197;-83
2023/03/13 10:02:03;;;;;;;3.28;1.50;;;11.50;99.90;;;;;;5035989;28;20704;-82
2023/03/13 10:04:38;;;;;;;5.72;1.73;;;11.70;99.90;;;;;;5036191;28;20163;-82
2023/03/13 10:07:09;;;;;;;3.95;1.42;;;11.80;99.90;;;;;;5035458;28;20552;-82
2023/03/13 10:09:36;;;;;;;3.13;1.15;;;11.80;99.90;;;;;;5018190;28;20269;-83
2023/03/13 10:12:23;;;;;;;3.58;1.10;;;11.80;99.90;;;;;;5036075;28;20648;-83
2023/03/13 10:15:26;;;;;;;4.15;1.38;;;11.80;99.90;;;;;;5018369;28;20237;-81
2023/03/13 10:17:52;;;;;;;4.93;1.48;;;11.80;99.90;;;;;;5034776;28;20208;-84
2023/03/13 10:20:33;;;;;;;2.22;1.10;;;11.80;99.90;;;;;;5033546;28;20621;-80
2023/03/13 10:23:14;;;;;;;1.88;1.20;;;11.80;99.90;;;;;;5035702;28;20190;-80
2023/03/13 10:25:40;;;;;;;3.05;1.02;;;11.90;99.90;;;;;;5018088;28;20504;-82
2023/03/13 10:28:12;;;;;;;3.15;1.00;;;11.80;99.90;;;;;;5017964;28;20174;-82
2023/03/13 10:30:43;;;;;;;1.98;1.02;;;11.80;99.90;;;;;;5035529;28;20242;-82
2023/03/13 10:33:12;;;;;;;1.85;1.00;;;11.90;99.90;;;;;;5035759;28;20163;-83
2023/03/13 10:35:42;;;;;;;5.53;1.30;;;11.90;99.90;;;;;;5017620;28;20187;-82
2023/03/13 10:38:17;;;;;;;2.45;1.33;;;12.00;99.90;;;;;;5035420;28;20186;-81
2023/03/13 10:40:55;;;;;;;2.10;1.00;;;12.00;99.90;;;;;;5017076;28;20179;-81
2023/03/13 10:43:21;;;;;;;1.95;1.10;;;12.00;99.90;;;;;;5035761;28;20162;-84
2023/03/13 10:45:47;;;;;;;4.75;1.20;;;12.00;99.90;;;;;;5017767;28;20186;-82
2023/03/13 10:48:17;;;;;;;3.47;1.00;;;12.00;99.90;;;;;;5035396;28;20182;-81
2023/03/13 10:50:46;;;;;;;4.13;1.02;;;12.10;99.90;;;;;;5003851;28;20273;-80
2023/03/13 10:53:22;;;;;;;1.50;0.95;;;12.10;99.90;;;;;;5015018;28;20630;-81
2023/03/13 10:55:50;;;;;;;2.28;1.00;;;12.20;99.90;;;;;;5000707;28;20194;-81
2023/03/13 10:58:33;;;;;;;3.80;0.90;;;12.20;99.90;;;;;;5014949;28;20178;-84
2023/03/13 11:01:23;;;;;;;1.30;1.08;;;12.30;99.90;;;;;;5015046;28;20222;-81
2023/03/13 11:03:52;;;;;;;4.07;1.50;;;12.30;99.90;;;;;;4997600;28;20610;-80
2023/03/13 11:06:26;;;;;;;2.33;0.95;;;12.30;99.90;;;;;;5015712;28;20625;-81
2023/03/13 11:09:18;;;;;;;5.55;1.20;;;12.30;99.90;;;;;;5022745;28;20196;-82
2023/03/13 11:11:46;;;;;;;2.15;1.10;;;12.40;99.90;;;;;;5005425;28;20202;-81
2023/03/13 11:14:16;;;;;;;1.75;0.88;;;12.50;99.90;;;;;;5030707;28;20209;-81
2023/03/13 11:16:50;;;;;;;1.60;1.02;;;12.50;99.90;;;;;;5017064;28;20266;-79
2023/03/13 11:19:48;;;;;;;3.65;1.02;;;12.60;99.90;;;;;;5016925;28;20258;-81
2023/03/13 11:22:17;;;;;;;3.38;1.20;;;12.50;99.90;;;;;;5003645;28;20195;-80
2023/03/13 11:24:58;;;;;;;3.58;1.10;;;12.50;99.90;;;;;;5034744;28;20179;-82
2023/03/13 11:27:44;;;;;;;2.53;1.20;;;12.60;99.90;;;;;;5034691;28;20178;-80
2023/03/13 11:30:43;;;;;;;3.40;1.42;;;12.80;99.90;;;;;;5034322;28;20206;-83
2023/03/13 11:33:56;;;;;;;4.82;1.33;;;13.00;99.90;;;;;;5016323;28;20174;-79
2023/03/13 11:36:39;;;;;;;4.45;1.00;;;13.20;99.90;;;;;;5000221;28;20189;-81
2023/03/13 11:39:15;;;;;;;1.58;0.90;;;13.30;99.90;;;;;;4996371;28;20174;-82
2023/03/13 11:42:16;;;;;;;2.80;1.02;;;13.30;99.90;;;;;;5024576;28;20571;-82
2023/03/13 11:45:35;;;;;;;3.53;1.02;;;13.30;99.90;;;;;;5034334;28;20657;-81
2023/03/13 11:48:38;;;;;;;1.48;0.85;;;13.40;99.90;;;;;;4976543;28;20222;-82
2023/03/13 11:51:29;;;;;;;5.25;1.17;;;13.70;99.90;;;;;;4991682;28;20219;-80
2023/03/13 11:54:28;;;;;;;1.80;0.88;;;13.80;99.90;;;;;;5033828;28;20179;-81
2023/03/13 11:56:58;;;;;;;2.58;1.13;;;13.80;99.90;;;;;;5032929;28;20675;-84
2023/03/13 11:59:49;;;;;;;1.42;1.00;;;13.80;99.90;;;;;;5015222;28;20178;-82
2023/03/13 12:02:32;;;;;;;1.77;0.85;;;13.80;99.90;;;;;;5033064;28;20223;-83
2023/03/13 12:05:06;;;;;;;1.67;1.00;;;13.80;99.90;;;;;;5016298;28;20537;-81
2023/03/13 12:08:04;;;;;;;1.60;0.82;;;13.90;99.90;;;;;;5033658;28;20182;-81
2023/03/13 12:10:39;;;;;;;3.63;0.98;;;14.00;99.90;;;;;;5017502;28;20230;-82
2023/03/13 12:13:43;;;;;;;1.83;0.82;;;14.00;99.90;;;;;;5016179;28;20205;-83
2023/03/13 12:16:14;;;;;;;2.08;0.90;;;13.90;99.90;;;;;;4937346;29;20181;-82
2023/03/13 12:18:44;;;;;;;2.50;1.02;;;14.00;99.90;;;;;;5020717;28;20201;-85
2023/03/13 12:21:27;;;;;;;1.85;1.10;;;14.10;99.90;;;;;;5030750;28;20185;-82
2023/03/13 12:24:11;;;;;;;3.63;0.85;;;14.20;99.90;;;;;;4996575;28;20178;-84
2023/03/13 12:26:48;;;;;;;2.08;0.93;;;14.30;99.90;;;;;;5028347;28;20265;-81
2023/03/13 12:29:39;;;;;;;3.08;1.10;;;14.40;99.90;;;;;;5032972;28;20249;-82
2023/03/13 12:32:11;;;;;;;3.63;0.95;;;14.50;99.90;;;;;;4970264;28;20194;-81
2023/03/13 12:35:02;;;;;;;1.48;0.90;;;14.50;99.90;;;;;;5015975;28;20182;-81
2023/03/13 12:37:53;;;;;;;2.25;0.95;;;14.50;99.90;;;;;;5015610;28;20525;-82
2023/03/13 12:40:30;;;;;;;3.50;0.90;;;14.60;99.90;;;;;;5033526;28;20614;-82
2023/03/13 12:43:09;;;;;;;3.97;1.20;;;14.60;99.90;;;;;;5007400;28;20254;-83
2023/03/13 12:45:44;;;;;;;2.95;1.30;;;14.60;99.90;;;;;;5014668;28;20189;-84
2023/03/13 12:48:34;;;;;;;2.58;1.10;;;14.70;99.90;;;;;;5033614;28;20657;-81
2023/03/13 12:51:18;;;;;;;3.10;0.90;;;14.80;99.90;;;;;;5033049;28;20289;-82
2023/03/13 12:53:56;;;;;;;7.15;0.95;;;15.10;99.90;;;;;;5031924;28;20196;-82
2023/03/13 12:56:46;;;;;;;2.83;1.13;;;15.10;99.90;;;;;;5009812;28;20189;-82
2023/03/13 12:59:39;;;;;;;4.05;1.00;;;15.10;99.90;;;;;;5030784;28;20166;-81
2023/03/13 13:02:19;;;;;;;1.25;1.00;;;15.00;99.90;;;;;;5022179;28;20681;-83
2023/03/13 13:04:47;;;;;;;1.80;0.98;;;15.00;99.90;;;;;;5031785;28;20178;-81